»·PEaware :: ECADR KSNA-KCRQ

ECADR :: KSNA-KCRQ

FLIGHT INFORMATION

Flight Status: Arrived
Operator: Unknown
More flights by this operator :: More flights under this callsign
Pilot: Adrián R. (20842)
Aircraft: CESSNA 172 SKYHAWK
(C172)
More flights by this aircraft type
Origin: KSNA John Wayne-Orange Co
United States
Destination: KCRQ McClellan-Palomar
United States
More flights between these airports :: More routes between these airports
Route: V23 OCN
File this flight plan on PilotEdge
Remarks: TEC route CSTP30, I-02 RATING
Altitude:
(Current/Filed)
5,000ft
Speed:
(Current/Filed)
105kts
Departed: 30-Oct-18 08:42 AM
Arrived: 30-Oct-18 09:26 AM
Distance/Time
Traveled:
44nm/0:44
Distance/Time
To Go:
Arrived

Flight Plot

Page will automatically refresh every two minutes.


Map Options




Map Legend


Flown Route
Filed Route
Departure Airport
Arrival Airport
Navaid (VOR, NDB)
Fix

Horizontal Profiles

Position Reports

Time Latitude Longitude Heading Altitude Ground
Speed
30-Oct-18 08:10 33.670916 -117.867531 327 60ft 0kts
30-Oct-18 08:11 33.670916 -117.867531 327 60ft 0kts
30-Oct-18 08:12 33.670916 -117.867531 327 60ft 0kts
30-Oct-18 08:13 33.670916 -117.867531 327 60ft 0kts
30-Oct-18 08:14 33.670916 -117.867531 327 60ft 0kts
30-Oct-18 08:15 33.670916 -117.867531 327 60ft 0kts
30-Oct-18 08:16 33.670916 -117.867531 327 60ft 0kts
30-Oct-18 08:17 33.670916 -117.867531 327 60ft 0kts
30-Oct-18 08:18 33.670916 -117.867531 327 60ft 0kts
30-Oct-18 08:19 33.670916 -117.867531 327 60ft 0kts
30-Oct-18 08:20 33.670916 -117.867531 327 60ft 0kts
30-Oct-18 08:21 33.670916 -117.867531 327 60ft 0kts
30-Oct-18 08:22 33.670916 -117.867531 327 60ft 0kts
30-Oct-18 08:23 33.670916 -117.867531 327 60ft 0kts
30-Oct-18 08:24 33.670916 -117.867531 327 60ft 0kts
30-Oct-18 08:25 33.670916 -117.867531 327 60ft 0kts
30-Oct-18 08:26 33.670916 -117.867531 327 60ft 0kts
30-Oct-18 08:27 33.670916 -117.867531 327 60ft 0kts
30-Oct-18 08:28 33.670916 -117.867531 327 60ft 0kts
30-Oct-18 08:29 33.670916 -117.867531 327 60ft 0kts
30-Oct-18 08:30 33.670916 -117.867531 327 60ft 0kts
30-Oct-18 08:31 33.670916 -117.867531 327 60ft 0kts
30-Oct-18 08:32 33.670916 -117.867531 327 60ft 0kts
30-Oct-18 08:33 33.670916 -117.867531 327 60ft 0kts
30-Oct-18 08:34 33.670916 -117.867531 327 60ft 0kts
30-Oct-18 08:35 33.671144 -117.867819 310 60ft 7kts
30-Oct-18 08:36 33.671238 -117.867942 313 60ft 0kts
30-Oct-18 08:37 33.671712 -117.868382 22 60ft 9kts
30-Oct-18 08:38 33.673316 -117.867979 5 60ft 0kts
30-Oct-18 08:39 33.673316 -117.867979 5 60ft 0kts
30-Oct-18 08:40 33.673316 -117.867979 5 60ft 0kts
30-Oct-18 08:41 33.673757 -117.867357 50 60ft 11kts
30-Oct-18 08:42 33.678505 -117.864278 27 60ft 21kts
30-Oct-18 08:43 33.679995 -117.863588 297 60ft 0kts
30-Oct-18 08:44 33.676250 -117.866615 204 65ft 72kts
30-Oct-18 08:45 33.655654 -117.877005 189 959ft 82kts
30-Oct-18 08:46 33.632938 -117.882494 188 1762ft 90kts
30-Oct-18 08:47 33.607305 -117.889298 188 2465ft 97kts
30-Oct-18 08:48 33.580746 -117.896688 188 3163ft 98kts
30-Oct-18 08:49 33.556279 -117.895503 114 3854ft 87kts
30-Oct-18 08:50 33.548263 -117.869517 105 4549ft 81kts
30-Oct-18 08:51 33.539837 -117.842675 105 4982ft 101kts
30-Oct-18 08:52 33.529885 -117.810857 106 4976ft 102kts
30-Oct-18 08:53 33.519835 -117.778947 105 4976ft 103kts
30-Oct-18 08:54 33.509701 -117.747031 105 4977ft 103kts
30-Oct-18 08:55 33.495720 -117.717029 128 4978ft 108kts
30-Oct-18 08:56 33.474355 -117.691673 129 4980ft 109kts
30-Oct-18 08:57 33.452567 -117.666109 129 4981ft 110kts
30-Oct-18 08:58 33.430626 -117.640429 129 4983ft 111kts
30-Oct-18 08:59 33.408494 -117.614575 129 4984ft 112kts
30-Oct-18 09:00 33.386251 -117.588560 129 4985ft 112kts
30-Oct-18 09:01 33.363922 -117.562506 130 4985ft 113kts
30-Oct-18 09:02 33.341269 -117.536083 130 4985ft 114kts
30-Oct-18 09:03 33.318524 -117.509547 131 4985ft 115kts
30-Oct-18 09:04 33.295683 -117.482952 131 4985ft 116kts
30-Oct-18 09:05 33.272704 -117.456198 131 4985ft 116kts
30-Oct-18 09:06 33.250038 -117.429807 132 4994ft 116kts
30-Oct-18 09:07 33.235113 -117.398425 95 4995ft 111kts
30-Oct-18 09:08 33.230024 -117.362063 94 4995ft 112kts
30-Oct-18 09:10 33.225183 -117.326983 95 4995ft 111kts
30-Oct-18 09:11 33.220267 -117.291878 95 4995ft 111kts
30-Oct-18 09:12 33.215130 -117.255982 95 5007ft 111kts
30-Oct-18 09:13 33.210023 -117.219470 95 5006ft 112kts
30-Oct-18 09:14 33.206511 -117.182648 84 5005ft 111kts
30-Oct-18 09:15 33.207485 -117.145757 84 5004ft 112kts
30-Oct-18 09:16 33.208582 -117.108656 84 5004ft 112kts
30-Oct-18 09:17 33.209781 -117.071631 84 5007ft 112kts
30-Oct-18 09:18 33.211116 -117.034900 84 4480ft 108kts
30-Oct-18 09:19 33.207378 -117.000125 145 3872ft 115kts
30-Oct-18 09:20 33.182001 -117.014348 224 3526ft 106kts
30-Oct-18 09:21 33.166196 -117.045225 260 3524ft 118kts
30-Oct-18 09:22 33.160051 -117.082907 260 3520ft 110kts
30-Oct-18 09:23 33.154202 -117.120646 260 3023ft 117kts
30-Oct-18 09:24 33.148131 -117.158488 259 2371ft 112kts
30-Oct-18 09:25 33.142456 -117.193375 259 1750ft 102kts
30-Oct-18 09:26 33.137486 -117.223861 259 1209ft 87kts
30-Oct-18 09:27 33.133268 -117.249633 259 757ft 69kts
30-Oct-18 09:28 33.129863 -117.270196 259 389ft 61kts
30-Oct-18 09:29 33.127829 -117.278088 104 304ft 0kts
30-Oct-18 09:30 33.127127 -117.276966 88 304ft 13kts
30-Oct-18 09:31 33.127809 -117.274869 165 304ft 0kts

Navigation Log

Ident Type
Flight plan parsing failed, navigation log unavailable